sensor_id;sensor_type;location;lat;lon;timestamp;P1;durP1;ratioP1;P2;durP2;ratioP2
39242;SDS011;29823;47.404;8.566;2022-11-14T00:00:30;26.52;;;17.25;;
39242;SDS011;29823;47.404;8.566;2022-11-14T00:02:58;28.13;;;18.27;;
39242;SDS011;29823;47.404;8.566;2022-11-14T00:05:27;32.90;;;19.30;;
39242;SDS011;29823;47.404;8.566;2022-11-14T00:07:55;30.50;;;19.52;;
39242;SDS011;29823;47.404;8.566;2022-11-14T00:10:23;31.67;;;19.42;;
39242;SDS011;29823;47.404;8.566;2022-11-14T00:12:51;32.63;;;20.17;;
39242;SDS011;29823;47.404;8.566;2022-11-14T00:15:20;29.10;;;18.85;;
39242;SDS011;29823;47.404;8.566;2022-11-14T00:17:48;29.88;;;18.77;;
39242;SDS011;29823;47.404;8.566;2022-11-14T00:20:16;32.13;;;20.15;;
39242;SDS011;29823;47.404;8.566;2022-11-14T00:22:44;31.50;;;19.50;;
39242;SDS011;29823;47.404;8.566;2022-11-14T00:25:12;31.80;;;19.35;;
39242;SDS011;29823;47.404;8.566;2022-11-14T00:27:40;33.55;;;20.40;;
39242;SDS011;29823;47.404;8.566;2022-11-14T00:30:08;33.72;;;20.40;;
39242;SDS011;29823;47.404;8.566;2022-11-14T00:32:37;34.40;;;19.67;;
39242;SDS011;29823;47.404;8.566;2022-11-14T00:35:05;29.95;;;19.55;;
39242;SDS011;29823;47.404;8.566;2022-11-14T00:37:34;30.92;;;19.98;;
39242;SDS011;29823;47.404;8.566;2022-11-14T00:40:02;34.97;;;21.27;;
39242;SDS011;29823;47.404;8.566;2022-11-14T00:42:30;34.97;;;20.00;;
39242;SDS011;29823;47.404;8.566;2022-11-14T00:44:59;42.33;;;23.08;;
39242;SDS011;29823;47.404;8.566;2022-11-14T00:47:27;37.88;;;22.00;;
39242;SDS011;29823;47.404;8.566;2022-11-14T00:49:56;41.17;;;22.77;;
39242;SDS011;29823;47.404;8.566;2022-11-14T00:52:24;36.78;;;21.60;;
39242;SDS011;29823;47.404;8.566;2022-11-14T00:54:52;37.80;;;21.77;;
39242;SDS011;29823;47.404;8.566;2022-11-14T00:57:20;37.70;;;20.98;;
39242;SDS011;29823;47.404;8.566;2022-11-14T00:59:47;32.58;;;20.45;;
39242;SDS011;29823;47.404;8.566;2022-11-14T01:02:15;33.00;;;19.55;;
39242;SDS011;29823;47.404;8.566;2022-11-14T01:04:43;30.90;;;19.33;;
39242;SDS011;29823;47.404;8.566;2022-11-14T01:07:12;28.17;;;18.98;;
39242;SDS011;29823;47.404;8.566;2022-11-14T01:09:40;28.50;;;18.60;;
39242;SDS011;29823;47.404;8.566;2022-11-14T01:12:08;29.85;;;18.45;;
39242;SDS011;29823;47.404;8.566;2022-11-14T01:14:35;28.95;;;18.25;;
39242;SDS011;29823;47.404;8.566;2022-11-14T01:17:03;34.47;;;19.38;;
39242;SDS011;29823;47.404;8.566;2022-11-14T01:19:31;33.78;;;19.67;;
39242;SDS011;29823;47.404;8.566;2022-11-14T01:21:59;31.15;;;19.05;;
39242;SDS011;29823;47.404;8.566;2022-11-14T01:24:33;31.23;;;20.02;;
39242;SDS011;29823;47.404;8.566;2022-11-14T01:27:01;34.10;;;20.63;;
39242;SDS011;29823;47.404;8.566;2022-11-14T01:29:29;27.25;;;17.92;;
39242;SDS011;29823;47.404;8.566;2022-11-14T01:31:57;29.33;;;18.90;;
39242;SDS011;29823;47.404;8.566;2022-11-14T01:34:25;28.02;;;18.48;;
39242;SDS011;29823;47.404;8.566;2022-11-14T01:36:54;30.13;;;18.30;;
39242;SDS011;29823;47.404;8.566;2022-11-14T01:39:22;29.75;;;16.92;;
39242;SDS011;29823;47.404;8.566;2022-11-14T01:41:51;31.63;;;18.33;;
39242;SDS011;29823;47.404;8.566;2022-11-14T01:47:22;28.13;;;17.73;;
39242;SDS011;29823;47.404;8.566;2022-11-14T01:49:53;27.40;;;17.25;;
39242;SDS011;29823;47.404;8.566;2022-11-14T01:52:25;24.05;;;15.77;;
39242;SDS011;29823;47.404;8.566;2022-11-14T01:54:56;24.35;;;15.65;;
39242;SDS011;29823;47.404;8.566;2022-11-14T01:57:28;22.88;;;14.88;;
39242;SDS011;29823;47.404;8.566;2022-11-14T02:00:00;25.08;;;15.57;;
39242;SDS011;29823;47.404;8.566;2022-11-14T02:02:31;25.20;;;15.65;;
39242;SDS011;29823;47.404;8.566;2022-11-14T02:05:00;25.95;;;16.20;;
39242;SDS011;29823;47.404;8.566;2022-11-14T02:07:31;24.98;;;16.08;;
39242;SDS011;29823;47.404;8.566;2022-11-14T02:10:06;26.20;;;16.50;;
39242;SDS011;29823;47.404;8.566;2022-11-14T02:12:37;25.23;;;16.10;;
39242;SDS011;29823;47.404;8.566;2022-11-14T02:15:05;24.45;;;15.60;;
39242;SDS011;29823;47.404;8.566;2022-11-14T02:17:34;25.30;;;15.20;;
39242;SDS011;29823;47.404;8.566;2022-11-14T02:20:14;25.27;;;16.10;;
39242;SDS011;29823;47.404;8.566;2022-11-14T02:25:12;22.45;;;14.95;;
39242;SDS011;29823;47.404;8.566;2022-11-14T02:27:43;24.13;;;15.07;;
39242;SDS011;29823;47.404;8.566;2022-11-14T02:30:12;22.60;;;15.52;;
39242;SDS011;29823;47.404;8.566;2022-11-14T02:32:43;25.17;;;15.90;;
39242;SDS011;29823;47.404;8.566;2022-11-14T02:35:32;24.05;;;15.43;;
39242;SDS011;29823;47.404;8.566;2022-11-14T02:37:59;25.88;;;16.00;;
39242;SDS011;29823;47.404;8.566;2022-11-14T02:40:27;25.63;;;16.60;;
39242;SDS011;29823;47.404;8.566;2022-11-14T02:42:55;26.42;;;15.57;;
39242;SDS011;29823;47.404;8.566;2022-11-14T02:45:23;27.95;;;16.75;;
39242;SDS011;29823;47.404;8.566;2022-11-14T02:47:50;24.60;;;15.63;;
39242;SDS011;29823;47.404;8.566;2022-11-14T02:50:18;24.25;;;15.05;;
39242;SDS011;29823;47.404;8.566;2022-11-14T02:52:47;24.85;;;15.77;;
39242;SDS011;29823;47.404;8.566;2022-11-14T02:55:15;25.65;;;16.15;;
39242;SDS011;29823;47.404;8.566;2022-11-14T02:57:43;22.20;;;14.75;;
39242;SDS011;29823;47.404;8.566;2022-11-14T03:00:11;21.95;;;13.95;;
39242;SDS011;29823;47.404;8.566;2022-11-14T03:02:40;21.02;;;13.82;;
39242;SDS011;29823;47.404;8.566;2022-11-14T03:05:08;21.98;;;13.50;;
39242;SDS011;29823;47.404;8.566;2022-11-14T03:07:36;20.23;;;14.13;;
39242;SDS011;29823;47.404;8.566;2022-11-14T03:10:06;20.20;;;13.98;;
39242;SDS011;29823;47.404;8.566;2022-11-14T03:12:35;22.00;;;13.75;;
39242;SDS011;29823;47.404;8.566;2022-11-14T03:15:03;21.85;;;13.20;;
39242;SDS011;29823;47.404;8.566;2022-11-14T03:17:32;25.35;;;13.95;;
39242;SDS011;29823;47.404;8.566;2022-11-14T03:20:00;21.38;;;13.93;;
39242;SDS011;29823;47.404;8.566;2022-11-14T03:22:28;20.27;;;14.00;;
39242;SDS011;29823;47.404;8.566;2022-11-14T03:24:56;21.95;;;14.18;;
39242;SDS011;29823;47.404;8.566;2022-11-14T03:27:25;22.98;;;14.90;;
39242;SDS011;29823;47.404;8.566;2022-11-14T03:29:53;21.15;;;13.40;;
39242;SDS011;29823;47.404;8.566;2022-11-14T03:32:20;21.40;;;13.68;;
39242;SDS011;29823;47.404;8.566;2022-11-14T03:34:48;21.27;;;14.38;;
39242;SDS011;29823;47.404;8.566;2022-11-14T03:37:16;22.33;;;13.65;;
39242;SDS011;29823;47.404;8.566;2022-11-14T03:39:44;19.77;;;13.82;;
39242;SDS011;29823;47.404;8.566;2022-11-14T03:42:11;23.25;;;14.63;;
39242;SDS011;29823;47.404;8.566;2022-11-14T03:44:40;23.00;;;14.48;;
39242;SDS011;29823;47.404;8.566;2022-11-14T03:47:09;20.45;;;14.13;;
39242;SDS011;29823;47.404;8.566;2022-11-14T03:49:36;23.92;;;14.88;;
39242;SDS011;29823;47.404;8.566;2022-11-14T03:52:04;21.35;;;13.93;;
39242;SDS011;29823;47.404;8.566;2022-11-14T03:54:32;21.40;;;14.00;;
39242;SDS011;29823;47.404;8.566;2022-11-14T03:57:00;21.83;;;14.43;;
39242;SDS011;29823;47.404;8.566;2022-11-14T03:59:27;21.75;;;14.68;;
39242;SDS011;29823;47.404;8.566;2022-11-14T04:01:56;22.45;;;13.88;;
39242;SDS011;29823;47.404;8.566;2022-11-14T04:04:24;23.30;;;15.43;;
39242;SDS011;29823;47.404;8.566;2022-11-14T04:06:52;24.15;;;16.20;;
39242;SDS011;29823;47.404;8.566;2022-11-14T04:09:20;21.83;;;14.93;;
39242;SDS011;29823;47.404;8.566;2022-11-14T04:11:48;20.45;;;14.05;;
39242;SDS011;29823;47.404;8.566;2022-11-14T04:14:15;22.15;;;14.20;;
39242;SDS011;29823;47.404;8.566;2022-11-14T04:16:43;23.00;;;14.52;;
39242;SDS011;29823;47.404;8.566;2022-11-14T04:19:12;22.10;;;14.65;;
39242;SDS011;29823;47.404;8.566;2022-11-14T04:21:40;19.92;;;13.20;;
39242;SDS011;29823;47.404;8.566;2022-11-14T04:24:08;20.90;;;13.40;;
39242;SDS011;29823;47.404;8.566;2022-11-14T04:26:36;23.27;;;14.60;;
39242;SDS011;29823;47.404;8.566;2022-11-14T04:29:04;25.50;;;16.42;;
39242;SDS011;29823;47.404;8.566;2022-11-14T04:31:32;26.20;;;15.50;;
39242;SDS011;29823;47.404;8.566;2022-11-14T04:33:59;28.00;;;16.88;;
39242;SDS011;29823;47.404;8.566;2022-11-14T04:36:28;32.53;;;18.73;;
39242;SDS011;29823;47.404;8.566;2022-11-14T04:38:56;30.75;;;17.98;;
39242;SDS011;29823;47.404;8.566;2022-11-14T04:41:24;27.98;;;16.30;;
39242;SDS011;29823;47.404;8.566;2022-11-14T04:43:52;23.88;;;16.17;;
39242;SDS011;29823;47.404;8.566;2022-11-14T04:46:20;25.70;;;14.10;;
39242;SDS011;29823;47.404;8.566;2022-11-14T04:48:47;19.85;;;13.20;;
39242;SDS011;29823;47.404;8.566;2022-11-14T04:51:15;22.08;;;13.90;;
39242;SDS011;29823;47.404;8.566;2022-11-14T04:53:44;21.25;;;14.18;;
39242;SDS011;29823;47.404;8.566;2022-11-14T04:56:12;21.55;;;14.25;;
39242;SDS011;29823;47.404;8.566;2022-11-14T04:58:40;24.98;;;16.20;;
39242;SDS011;29823;47.404;8.566;2022-11-14T05:01:07;30.23;;;18.45;;
39242;SDS011;29823;47.404;8.566;2022-11-14T05:03:36;32.45;;;19.05;;
39242;SDS011;29823;47.404;8.566;2022-11-14T05:06:04;31.75;;;18.67;;
39242;SDS011;29823;47.404;8.566;2022-11-14T05:08:32;30.75;;;19.35;;
39242;SDS011;29823;47.404;8.566;2022-11-14T05:11:01;33.15;;;20.10;;
39242;SDS011;29823;47.404;8.566;2022-11-14T05:13:29;31.67;;;19.48;;
39242;SDS011;29823;47.404;8.566;2022-11-14T05:15:57;33.65;;;20.17;;
39242;SDS011;29823;47.404;8.566;2022-11-14T05:18:26;37.63;;;21.35;;
39242;SDS011;29823;47.404;8.566;2022-11-14T05:20:56;38.65;;;22.02;;
39242;SDS011;29823;47.404;8.566;2022-11-14T05:23:24;38.72;;;21.52;;
39242;SDS011;29823;47.404;8.566;2022-11-14T05:25:59;37.95;;;21.30;;
39242;SDS011;29823;47.404;8.566;2022-11-14T05:28:30;37.90;;;20.50;;
39242;SDS011;29823;47.404;8.566;2022-11-14T05:31:01;37.28;;;21.38;;
39242;SDS011;29823;47.404;8.566;2022-11-14T05:33:30;32.92;;;20.33;;
39242;SDS011;29823;47.404;8.566;2022-11-14T05:36:00;37.05;;;21.42;;
39242;SDS011;29823;47.404;8.566;2022-11-14T05:38:29;40.05;;;20.90;;
39242;SDS011;29823;47.404;8.566;2022-11-14T05:40:57;35.40;;;19.65;;
39242;SDS011;29823;47.404;8.566;2022-11-14T05:43:29;42.40;;;20.75;;
39242;SDS011;29823;47.404;8.566;2022-11-14T05:45:57;40.70;;;21.07;;
39242;SDS011;29823;47.404;8.566;2022-11-14T05:48:25;34.45;;;21.05;;
39242;SDS011;29823;47.404;8.566;2022-11-14T05:50:54;35.42;;;21.20;;
39242;SDS011;29823;47.404;8.566;2022-11-14T05:53:23;35.13;;;21.38;;
39242;SDS011;29823;47.404;8.566;2022-11-14T05:55:51;33.90;;;19.67;;
39242;SDS011;29823;47.404;8.566;2022-11-14T05:58:19;32.38;;;19.23;;
39242;SDS011;29823;47.404;8.566;2022-11-14T06:00:48;35.33;;;20.92;;
39242;SDS011;29823;47.404;8.566;2022-11-14T06:03:19;42.88;;;23.40;;
39242;SDS011;29823;47.404;8.566;2022-11-14T06:05:47;43.83;;;24.05;;
39242;SDS011;29823;47.404;8.566;2022-11-14T06:08:15;45.40;;;23.45;;
39242;SDS011;29823;47.404;8.566;2022-11-14T06:10:43;41.05;;;23.40;;
39242;SDS011;29823;47.404;8.566;2022-11-14T06:13:10;39.08;;;23.27;;
39242;SDS011;29823;47.404;8.566;2022-11-14T06:15:38;41.15;;;23.33;;
39242;SDS011;29823;47.404;8.566;2022-11-14T06:18:07;40.38;;;23.60;;
39242;SDS011;29823;47.404;8.566;2022-11-14T06:20:35;39.03;;;22.95;;
39242;SDS011;29823;47.404;8.566;2022-11-14T06:23:03;40.65;;;22.42;;
39242;SDS011;29823;47.404;8.566;2022-11-14T06:25:30;37.72;;;22.20;;
39242;SDS011;29823;47.404;8.566;2022-11-14T06:27:58;40.13;;;23.00;;
39242;SDS011;29823;47.404;8.566;2022-11-14T06:30:26;41.05;;;22.85;;
39242;SDS011;29823;47.404;8.566;2022-11-14T06:32:55;37.47;;;22.30;;
39242;SDS011;29823;47.404;8.566;2022-11-14T06:35:25;36.63;;;21.77;;
39242;SDS011;29823;47.404;8.566;2022-11-14T06:37:53;36.28;;;20.63;;
39242;SDS011;29823;47.404;8.566;2022-11-14T06:40:21;38.08;;;22.85;;
39242;SDS011;29823;47.404;8.566;2022-11-14T06:42:48;38.53;;;22.42;;
39242;SDS011;29823;47.404;8.566;2022-11-14T06:45:16;37.13;;;21.60;;
39242;SDS011;29823;47.404;8.566;2022-11-14T06:47:44;36.63;;;21.83;;
39242;SDS011;29823;47.404;8.566;2022-11-14T06:50:12;32.97;;;20.48;;
39242;SDS011;29823;47.404;8.566;2022-11-14T06:52:41;36.50;;;20.77;;
39242;SDS011;29823;47.404;8.566;2022-11-14T06:55:09;39.45;;;20.60;;
39242;SDS011;29823;47.404;8.566;2022-11-14T06:57:37;38.30;;;21.58;;
39242;SDS011;29823;47.404;8.566;2022-11-14T07:00:05;33.30;;;20.83;;
39242;SDS011;29823;47.404;8.566;2022-11-14T07:02:34;32.88;;;19.92;;
39242;SDS011;29823;47.404;8.566;2022-11-14T07:05:01;38.80;;;20.40;;
39242;SDS011;29823;47.404;8.566;2022-11-14T07:07:29;37.42;;;21.30;;
39242;SDS011;29823;47.404;8.566;2022-11-14T07:09:59;32.28;;;20.63;;
39242;SDS011;29823;47.404;8.566;2022-11-14T07:12:26;35.22;;;21.23;;
39242;SDS011;29823;47.404;8.566;2022-11-14T07:14:54;38.15;;;21.23;;
39242;SDS011;29823;47.404;8.566;2022-11-14T07:17:22;41.60;;;22.88;;
39242;SDS011;29823;47.404;8.566;2022-11-14T07:19:56;38.13;;;21.90;;
39242;SDS011;29823;47.404;8.566;2022-11-14T07:22:24;39.67;;;21.35;;
39242;SDS011;29823;47.404;8.566;2022-11-14T07:24:51;39.17;;;21.17;;
39242;SDS011;29823;47.404;8.566;2022-11-14T07:27:20;40.25;;;22.30;;
39242;SDS011;29823;47.404;8.566;2022-11-14T07:29:48;36.72;;;21.20;;
39242;SDS011;29823;47.404;8.566;2022-11-14T07:32:16;34.60;;;18.73;;
39242;SDS011;29823;47.404;8.566;2022-11-14T07:34:44;41.10;;;21.52;;
39242;SDS011;29823;47.404;8.566;2022-11-14T07:37:11;42.72;;;21.88;;
39242;SDS011;29823;47.404;8.566;2022-11-14T07:39:39;40.60;;;22.15;;
39242;SDS011;29823;47.404;8.566;2022-11-14T07:42:07;40.60;;;22.45;;
39242;SDS011;29823;47.404;8.566;2022-11-14T07:44:36;44.70;;;23.58;;
39242;SDS011;29823;47.404;8.566;2022-11-14T07:47:04;40.03;;;21.48;;
39242;SDS011;29823;47.404;8.566;2022-11-14T07:49:31;15.80;;;8.98;;
39242;SDS011;29823;47.404;8.566;2022-11-14T07:51:59;17.50;;;8.75;;
39242;SDS011;29823;47.404;8.566;2022-11-14T07:54:27;17.70;;;8.90;;
39242;SDS011;29823;47.404;8.566;2022-11-14T07:56:54;13.23;;;7.68;;
39242;SDS011;29823;47.404;8.566;2022-11-14T07:59:22;20.17;;;7.82;;
39242;SDS011;29823;47.404;8.566;2022-11-14T08:01:51;15.90;;;7.32;;
39242;SDS011;29823;47.404;8.566;2022-11-14T08:04:19;12.52;;;6.55;;
39242;SDS011;29823;47.404;8.566;2022-11-14T08:06:47;12.35;;;7.25;;
39242;SDS011;29823;47.404;8.566;2022-11-14T08:09:15;15.07;;;6.68;;
39242;SDS011;29823;47.404;8.566;2022-11-14T08:11:42;16.67;;;7.65;;
39242;SDS011;29823;47.404;8.566;2022-11-14T08:14:17;14.10;;;7.28;;
39242;SDS011;29823;47.404;8.566;2022-11-14T08:16:44;13.35;;;6.68;;
39242;SDS011;29823;47.404;8.566;2022-11-14T08:19:13;12.35;;;6.18;;
39242;SDS011;29823;47.404;8.566;2022-11-14T08:21:42;14.75;;;7.13;;
39242;SDS011;29823;47.404;8.566;2022-11-14T08:24:09;14.15;;;6.97;;
39242;SDS011;29823;47.404;8.566;2022-11-14T08:26:37;14.50;;;6.90;;
39242;SDS011;29823;47.404;8.566;2022-11-14T08:29:05;10.90;;;5.97;;
39242;SDS011;29823;47.404;8.566;2022-11-14T08:31:32;11.60;;;6.00;;
39242;SDS011;29823;47.404;8.566;2022-11-14T08:34:00;12.80;;;6.57;;
39242;SDS011;29823;47.404;8.566;2022-11-14T08:36:29;13.15;;;6.15;;
39242;SDS011;29823;47.404;8.566;2022-11-14T08:38:57;10.15;;;5.63;;
39242;SDS011;29823;47.404;8.566;2022-11-14T08:41:27;8.80;;;5.30;;
39242;SDS011;29823;47.404;8.566;2022-11-14T08:43:55;15.75;;;5.70;;
39242;SDS011;29823;47.404;8.566;2022-11-14T08:46:23;13.15;;;7.00;;
39242;SDS011;29823;47.404;8.566;2022-11-14T08:48:51;13.35;;;7.65;;
39242;SDS011;29823;47.404;8.566;2022-11-14T08:51:18;15.63;;;8.55;;
39242;SDS011;29823;47.404;8.566;2022-11-14T08:53:48;19.67;;;9.50;;
39242;SDS011;29823;47.404;8.566;2022-11-14T08:56:17;15.85;;;7.88;;
39242;SDS011;29823;47.404;8.566;2022-11-14T08:58:45;12.48;;;6.38;;
39242;SDS011;29823;47.404;8.566;2022-11-14T09:01:13;8.10;;;4.07;;
39242;SDS011;29823;47.404;8.566;2022-11-14T09:03:41;9.73;;;4.80;;
39242;SDS011;29823;47.404;8.566;2022-11-14T09:06:09;11.98;;;7.22;;
39242;SDS011;29823;47.404;8.566;2022-11-14T09:08:37;14.35;;;8.00;;
39242;SDS011;29823;47.404;8.566;2022-11-14T09:11:06;12.60;;;7.88;;
39242;SDS011;29823;47.404;8.566;2022-11-14T09:13:35;15.27;;;8.10;;
39242;SDS011;29823;47.404;8.566;2022-11-14T09:16:03;17.20;;;8.68;;
39242;SDS011;29823;47.404;8.566;2022-11-14T09:18:31;10.07;;;7.20;;
39242;SDS011;29823;47.404;8.566;2022-11-14T09:20:59;12.00;;;7.32;;
39242;SDS011;29823;47.404;8.566;2022-11-14T09:23:28;16.48;;;8.85;;
39242;SDS011;29823;47.404;8.566;2022-11-14T09:25:56;10.32;;;6.82;;
39242;SDS011;29823;47.404;8.566;2022-11-14T09:28:25;16.02;;;8.02;;
39242;SDS011;29823;47.404;8.566;2022-11-14T09:30:58;10.75;;;7.40;;
39242;SDS011;29823;47.404;8.566;2022-11-14T09:33:26;12.82;;;7.80;;
39242;SDS011;29823;47.404;8.566;2022-11-14T09:35:55;11.55;;;7.57;;
39242;SDS011;29823;47.404;8.566;2022-11-14T09:38:23;10.60;;;6.85;;
39242;SDS011;29823;47.404;8.566;2022-11-14T09:40:56;11.43;;;6.85;;
39242;SDS011;29823;47.404;8.566;2022-11-14T09:43:36;18.30;;;8.70;;
39242;SDS011;29823;47.404;8.566;2022-11-14T09:46:16;11.20;;;7.00;;
39242;SDS011;29823;47.404;8.566;2022-11-14T09:48:48;13.02;;;6.68;;
39242;SDS011;29823;47.404;8.566;2022-11-14T09:51:18;7.30;;;5.03;;
39242;SDS011;29823;47.404;8.566;2022-11-14T09:53:49;8.32;;;4.40;;
39242;SDS011;29823;47.404;8.566;2022-11-14T09:56:22;7.22;;;2.50;;
39242;SDS011;29823;47.404;8.566;2022-11-14T09:58:53;3.17;;;1.55;;
39242;SDS011;29823;47.404;8.566;2022-11-14T10:01:29;4.90;;;1.80;;
39242;SDS011;29823;47.404;8.566;2022-11-14T10:04:07;2.38;;;1.15;;
39242;SDS011;29823;47.404;8.566;2022-11-14T10:06:46;5.60;;;2.10;;
39242;SDS011;29823;47.404;8.566;2022-11-14T10:09:28;5.30;;;1.77;;
39242;SDS011;29823;47.404;8.566;2022-11-14T10:12:11;1.90;;;1.40;;
39242;SDS011;29823;47.404;8.566;2022-11-14T10:17:58;1.17;;;1.02;;
39242;SDS011;29823;47.404;8.566;2022-11-14T10:20:38;2.92;;;1.55;;
39242;SDS011;29823;47.404;8.566;2022-11-14T10:23:20;2.80;;;1.60;;
39242;SDS011;29823;47.404;8.566;2022-11-14T10:26:01;4.63;;;2.22;;
39242;SDS011;29823;47.404;8.566;2022-11-14T10:28:41;3.20;;;2.00;;
39242;SDS011;29823;47.404;8.566;2022-11-14T10:31:24;4.70;;;2.58;;
39242;SDS011;29823;47.404;8.566;2022-11-14T10:34:05;14.60;;;4.93;;
39242;SDS011;29823;47.404;8.566;2022-11-14T10:36:46;11.88;;;5.72;;
39242;SDS011;29823;47.404;8.566;2022-11-14T10:39:22;13.32;;;6.07;;
39242;SDS011;29823;47.404;8.566;2022-11-14T10:41:54;11.95;;;6.10;;
39242;SDS011;29823;47.404;8.566;2022-11-14T10:44:33;16.05;;;7.13;;
39242;SDS011;29823;47.404;8.566;2022-11-14T10:47:08;15.15;;;7.43;;
39242;SDS011;29823;47.404;8.566;2022-11-14T10:49:40;19.58;;;7.50;;
39242;SDS011;29823;47.404;8.566;2022-11-14T10:52:12;17.27;;;8.48;;
39242;SDS011;29823;47.404;8.566;2022-11-14T10:54:43;14.25;;;7.75;;
39242;SDS011;29823;47.404;8.566;2022-11-14T10:57:15;18.77;;;7.95;;
39242;SDS011;29823;47.404;8.566;2022-11-14T10:59:44;12.15;;;6.70;;
39242;SDS011;29823;47.404;8.566;2022-11-14T11:02:14;12.73;;;7.43;;
39242;SDS011;29823;47.404;8.566;2022-11-14T11:04:42;14.82;;;8.02;;
39242;SDS011;29823;47.404;8.566;2022-11-14T11:07:18;12.63;;;7.68;;
39242;SDS011;29823;47.404;8.566;2022-11-14T11:10:09;17.42;;;7.03;;
39242;SDS011;29823;47.404;8.566;2022-11-14T11:13:03;14.45;;;7.43;;
39242;SDS011;29823;47.404;8.566;2022-11-14T11:15:37;14.77;;;7.97;;
39242;SDS011;29823;47.404;8.566;2022-11-14T11:18:22;10.88;;;6.93;;
39242;SDS011;29823;47.404;8.566;2022-11-14T11:21:03;9.90;;;5.88;;
39242;SDS011;29823;47.404;8.566;2022-11-14T11:23:33;9.43;;;6.75;;
39242;SDS011;29823;47.404;8.566;2022-11-14T11:26:03;10.52;;;6.13;;
39242;SDS011;29823;47.404;8.566;2022-11-14T11:28:35;12.10;;;6.75;;
39242;SDS011;29823;47.404;8.566;2022-11-14T11:31:04;16.92;;;6.65;;
39242;SDS011;29823;47.404;8.566;2022-11-14T11:33:35;13.60;;;7.15;;
39242;SDS011;29823;47.404;8.566;2022-11-14T11:36:05;12.13;;;7.00;;
39242;SDS011;29823;47.404;8.566;2022-11-14T11:38:38;12.80;;;6.82;;
39242;SDS011;29823;47.404;8.566;2022-11-14T11:41:11;11.20;;;6.60;;
39242;SDS011;29823;47.404;8.566;2022-11-14T11:44:09;15.85;;;6.50;;
39242;SDS011;29823;47.404;8.566;2022-11-14T11:46:44;9.93;;;6.47;;
39242;SDS011;29823;47.404;8.566;2022-11-14T11:49:18;13.95;;;6.43;;
39242;SDS011;29823;47.404;8.566;2022-11-14T11:51:54;4.47;;;2.78;;
39242;SDS011;29823;47.404;8.566;2022-11-14T11:54:23;2.55;;;1.48;;
39242;SDS011;29823;47.404;8.566;2022-11-14T11:56:59;4.55;;;2.13;;
39242;SDS011;29823;47.404;8.566;2022-11-14T11:59:31;6.55;;;4.10;;
39242;SDS011;29823;47.404;8.566;2022-11-14T12:02:10;5.93;;;3.17;;
39242;SDS011;29823;47.404;8.566;2022-11-14T12:04:48;2.33;;;1.80;;
39242;SDS011;29823;47.404;8.566;2022-11-14T12:07:18;3.30;;;1.67;;
39242;SDS011;29823;47.404;8.566;2022-11-14T12:09:48;1.95;;;1.30;;
39242;SDS011;29823;47.404;8.566;2022-11-14T12:12:41;3.53;;;1.55;;
39242;SDS011;29823;47.404;8.566;2022-11-14T12:15:26;5.32;;;1.50;;
39242;SDS011;29823;47.404;8.566;2022-11-14T12:21:07;2.65;;;1.67;;
39242;SDS011;29823;47.404;8.566;2022-11-14T12:23:57;5.13;;;1.83;;
39242;SDS011;29823;47.404;8.566;2022-11-14T12:26:53;5.88;;;1.88;;
39242;SDS011;29823;47.404;8.566;2022-11-14T12:29:36;3.05;;;1.75;;
39242;SDS011;29823;47.404;8.566;2022-11-14T12:32:14;7.20;;;1.58;;
39242;SDS011;29823;47.404;8.566;2022-11-14T12:34:49;1.85;;;1.40;;
39242;SDS011;29823;47.404;8.566;2022-11-14T12:37:20;3.10;;;1.50;;
39242;SDS011;29823;47.404;8.566;2022-11-14T12:39:53;6.65;;;1.92;;
39242;SDS011;29823;47.404;8.566;2022-11-14T12:42:24;5.57;;;1.48;;
39242;SDS011;29823;47.404;8.566;2022-11-14T12:44:52;3.33;;;1.30;;
39242;SDS011;29823;47.404;8.566;2022-11-14T12:47:21;3.72;;;2.60;;
39242;SDS011;29823;47.404;8.566;2022-11-14T12:49:57;3.03;;;1.90;;
39242;SDS011;29823;47.404;8.566;2022-11-14T12:52:45;3.65;;;1.70;;
39242;SDS011;29823;47.404;8.566;2022-11-14T13:01:19;6.32;;;2.17;;
39242;SDS011;29823;47.404;8.566;2022-11-14T13:04:04;6.68;;;2.83;;
39242;SDS011;29823;47.404;8.566;2022-11-14T13:07:06;10.13;;;4.82;;
39242;SDS011;29823;47.404;8.566;2022-11-14T13:10:10;8.70;;;5.32;;
39242;SDS011;29823;47.404;8.566;2022-11-14T13:12:40;11.55;;;5.18;;
39242;SDS011;29823;47.404;8.566;2022-11-14T13:15:27;13.70;;;6.38;;
39242;SDS011;29823;47.404;8.566;2022-11-14T13:18:18;13.40;;;5.80;;
39242;SDS011;29823;47.404;8.566;2022-11-14T13:21:15;12.95;;;4.60;;
39242;SDS011;29823;47.404;8.566;2022-11-14T13:24:09;7.35;;;5.05;;
39242;SDS011;29823;47.404;8.566;2022-11-14T13:26:42;8.93;;;4.25;;
39242;SDS011;29823;47.404;8.566;2022-11-14T13:35:39;10.02;;;4.20;;
39242;SDS011;29823;47.404;8.566;2022-11-14T13:38:25;6.90;;;4.50;;
39242;SDS011;29823;47.404;8.566;2022-11-14T13:44:29;8.00;;;3.80;;
39242;SDS011;29823;47.404;8.566;2022-11-14T13:47:23;10.93;;;4.22;;
39242;SDS011;29823;47.404;8.566;2022-11-14T13:50:09;8.32;;;4.15;;
39242;SDS011;29823;47.404;8.566;2022-11-14T13:52:41;10.30;;;3.77;;
39242;SDS011;29823;47.404;8.566;2022-11-14T13:55:17;8.18;;;3.47;;
39242;SDS011;29823;47.404;8.566;2022-11-14T13:57:52;9.75;;;3.03;;
39242;SDS011;29823;47.404;8.566;2022-11-14T14:00:29;5.00;;;2.88;;
39242;SDS011;29823;47.404;8.566;2022-11-14T14:03:22;6.60;;;2.80;;
39242;SDS011;29823;47.404;8.566;2022-11-14T14:06:06;10.38;;;4.30;;
39242;SDS011;29823;47.404;8.566;2022-11-14T14:08:48;15.65;;;7.32;;
39242;SDS011;29823;47.404;8.566;2022-11-14T14:11:31;25.98;;;12.18;;
39242;SDS011;29823;47.404;8.566;2022-11-14T14:14:13;5.20;;;3.35;;
39242;SDS011;29823;47.404;8.566;2022-11-14T14:16:58;5.32;;;2.58;;
39242;SDS011;29823;47.404;8.566;2022-11-14T14:19:34;7.93;;;2.72;;
39242;SDS011;29823;47.404;8.566;2022-11-14T14:22:14;5.85;;;2.70;;
39242;SDS011;29823;47.404;8.566;2022-11-14T14:24:52;7.30;;;2.67;;
39242;SDS011;29823;47.404;8.566;2022-11-14T14:27:27;7.05;;;2.90;;
39242;SDS011;29823;47.404;8.566;2022-11-14T14:30:05;5.82;;;2.22;;
39242;SDS011;29823;47.404;8.566;2022-11-14T14:32:35;6.25;;;1.77;;
39242;SDS011;29823;47.404;8.566;2022-11-14T14:35:22;4.55;;;2.35;;
39242;SDS011;29823;47.404;8.566;2022-11-14T14:37:51;3.38;;;2.13;;
39242;SDS011;29823;47.404;8.566;2022-11-14T14:40:22;6.75;;;2.03;;
39242;SDS011;29823;47.404;8.566;2022-11-14T14:42:51;4.03;;;2.00;;
39242;SDS011;29823;47.404;8.566;2022-11-14T14:45:22;4.38;;;1.80;;
39242;SDS011;29823;47.404;8.566;2022-11-14T14:47:57;6.80;;;1.95;;
39242;SDS011;29823;47.404;8.566;2022-11-14T14:50:29;2.78;;;1.60;;
39242;SDS011;29823;47.404;8.566;2022-11-14T14:53:02;2.85;;;1.80;;
39242;SDS011;29823;47.404;8.566;2022-11-14T14:55:32;6.70;;;2.33;;
39242;SDS011;29823;47.404;8.566;2022-11-14T14:58:11;6.47;;;1.90;;
39242;SDS011;29823;47.404;8.566;2022-11-14T15:00:50;7.95;;;1.85;;
39242;SDS011;29823;47.404;8.566;2022-11-14T15:03:20;9.05;;;2.00;;
39242;SDS011;29823;47.404;8.566;2022-11-14T15:05:55;1.92;;;1.17;;
39242;SDS011;29823;47.404;8.566;2022-11-14T15:08:24;2.50;;;1.33;;
39242;SDS011;29823;47.404;8.566;2022-11-14T15:10:55;4.70;;;1.80;;
39242;SDS011;29823;47.404;8.566;2022-11-14T15:13:26;4.68;;;1.80;;
39242;SDS011;29823;47.404;8.566;2022-11-14T15:15:57;4.43;;;1.83;;
39242;SDS011;29823;47.404;8.566;2022-11-14T15:18:25;5.95;;;1.63;;
39242;SDS011;29823;47.404;8.566;2022-11-14T15:21:06;4.85;;;1.70;;
39242;SDS011;29823;47.404;8.566;2022-11-14T15:23:36;6.95;;;1.73;;